sensor_id;sensor_type;location;lat;lon;timestamp;pressure;altitude;pressure_sealevel;temperature;humidity
7376;BME280;3728;42.266;24.944;2022-09-28T00:01:17;98462.16;;;18.06;100.00
7376;BME280;3728;42.266;24.944;2022-09-28T00:03:48;98472.78;;;18.17;100.00
7376;BME280;3728;42.266;24.944;2022-09-28T00:06:19;98469.72;;;18.08;100.00
7376;BME280;3728;42.266;24.944;2022-09-28T00:08:49;98463.25;;;17.98;100.00
7376;BME280;3728;42.266;24.944;2022-09-28T00:11:17;98461.25;;;17.74;100.00
7376;BME280;3728;42.266;24.944;2022-09-28T00:13:51;98458.94;;;17.62;100.00
7376;BME280;3728;42.266;24.944;2022-09-28T00:16:26;98463.84;;;17.56;100.00
7376;BME280;3728;42.266;24.944;2022-09-28T00:18:55;98470.03;;;17.85;100.00
7376;BME280;3728;42.266;24.944;2022-09-28T00:21:27;98467.75;;;17.84;100.00
7376;BME280;3728;42.266;24.944;2022-09-28T00:23:58;98464.22;;;17.58;100.00
7376;BME280;3728;42.266;24.944;2022-09-28T00:26:50;98467.34;;;17.82;100.00
7376;BME280;3728;42.266;24.944;2022-09-28T00:29:24;98471.69;;;17.42;100.00
7376;BME280;3728;42.266;24.944;2022-09-28T00:31:55;98470.50;;;17.36;100.00
7376;BME280;3728;42.266;24.944;2022-09-28T00:34:30;98463.66;;;17.32;100.00
7376;BME280;3728;42.266;24.944;2022-09-28T00:37:03;98467.81;;;17.29;100.00
7376;BME280;3728;42.266;24.944;2022-09-28T00:39:31;98466.69;;;17.34;100.00
7376;BME280;3728;42.266;24.944;2022-09-28T00:42:02;98468.97;;;17.28;100.00
7376;BME280;3728;42.266;24.944;2022-09-28T00:44:41;98469.38;;;17.37;100.00
7376;BME280;3728;42.266;24.944;2022-09-28T00:53:13;98471.41;;;17.58;100.00
7376;BME280;3728;42.266;24.944;2022-09-28T00:55:48;98473.69;;;17.59;100.00
7376;BME280;3728;42.266;24.944;2022-09-28T00:58:29;98466.75;;;17.41;100.00
7376;BME280;3728;42.266;24.944;2022-09-28T01:01:00;98465.50;;;17.21;100.00
7376;BME280;3728;42.266;24.944;2022-09-28T01:03:28;98454.19;;;17.27;100.00
7376;BME280;3728;42.266;24.944;2022-09-28T01:05:58;98448.94;;;17.31;100.00
7376;BME280;3728;42.266;24.944;2022-09-28T01:08:31;98457.22;;;17.29;100.00
7376;BME280;3728;42.266;24.944;2022-09-28T01:11:00;98460.69;;;17.37;100.00
7376;BME280;3728;42.266;24.944;2022-09-28T01:13:29;98457.22;;;17.26;100.00
7376;BME280;3728;42.266;24.944;2022-09-28T01:30:06;98452.41;;;16.84;100.00
7376;BME280;3728;42.266;24.944;2022-09-28T01:33:07;98461.28;;;16.65;100.00
7376;BME280;3728;42.266;24.944;2022-09-28T01:38:25;98449.59;;;16.66;100.00
7376;BME280;3728;42.266;24.944;2022-09-28T01:40:59;98451.59;;;16.76;100.00
7376;BME280;3728;42.266;24.944;2022-09-28T01:43:28;98453.47;;;16.76;100.00
7376;BME280;3728;42.266;24.944;2022-09-28T01:46:17;98450.16;;;16.86;100.00
7376;BME280;3728;42.266;24.944;2022-09-28T01:48:55;98448.66;;;16.88;100.00
7376;BME280;3728;42.266;24.944;2022-09-28T01:51:40;98455.22;;;17.05;100.00
7376;BME280;3728;42.266;24.944;2022-09-28T01:54:39;98454.38;;;16.97;100.00
7376;BME280;3728;42.266;24.944;2022-09-28T01:57:41;98457.03;;;17.01;100.00
7376;BME280;3728;42.266;24.944;2022-09-28T02:00:17;98457.44;;;17.03;100.00
7376;BME280;3728;42.266;24.944;2022-09-28T02:02:51;98451.03;;;17.04;100.00
7376;BME280;3728;42.266;24.944;2022-09-28T02:05:58;98447.91;;;16.91;100.00
7376;BME280;3728;42.266;24.944;2022-09-28T02:08:53;98451.66;;;16.83;100.00
7376;BME280;3728;42.266;24.944;2022-09-28T02:11:36;98450.72;;;16.65;100.00
7376;BME280;3728;42.266;24.944;2022-09-28T02:14:10;98449.66;;;16.73;100.00
7376;BME280;3728;42.266;24.944;2022-09-28T02:16:43;98439.47;;;16.75;100.00
7376;BME280;3728;42.266;24.944;2022-09-28T02:19:16;98444.81;;;16.79;100.00
7376;BME280;3728;42.266;24.944;2022-09-28T02:21:58;98451.16;;;16.71;100.00
7376;BME280;3728;42.266;24.944;2022-09-28T02:25:13;98455.72;;;16.77;100.00
7376;BME280;3728;42.266;24.944;2022-09-28T02:28:07;98466.78;;;16.90;100.00
7376;BME280;3728;42.266;24.944;2022-09-28T02:30:38;98453.69;;;16.57;100.00
7376;BME280;3728;42.266;24.944;2022-09-28T02:33:25;98452.03;;;16.45;100.00
7376;BME280;3728;42.266;24.944;2022-09-28T02:36:02;98445.75;;;16.20;100.00
7376;BME280;3728;42.266;24.944;2022-09-28T02:38:36;98449.56;;;16.22;100.00
7376;BME280;3728;42.266;24.944;2022-09-28T02:41:21;98451.31;;;16.11;100.00
7376;BME280;3728;42.266;24.944;2022-09-28T02:46:49;98455.69;;;16.33;100.00
7376;BME280;3728;42.266;24.944;2022-09-28T03:01:10;98479.50;;;16.00;100.00
7376;BME280;3728;42.266;24.944;2022-09-28T03:03:57;98472.50;;;15.82;100.00
7376;BME280;3728;42.266;24.944;2022-09-28T03:12:21;98463.22;;;15.61;100.00
7376;BME280;3728;42.266;24.944;2022-09-28T03:17:40;98462.13;;;15.14;100.00
7376;BME280;3728;42.266;24.944;2022-09-28T03:20:09;98468.47;;;15.09;100.00
7376;BME280;3728;42.266;24.944;2022-09-28T03:22:37;98467.00;;;15.12;100.00
7376;BME280;3728;42.266;24.944;2022-09-28T03:25:06;98469.88;;;15.03;100.00
7376;BME280;3728;42.266;24.944;2022-09-28T03:27:36;98471.50;;;15.11;100.00
7376;BME280;3728;42.266;24.944;2022-09-28T03:30:06;98467.50;;;15.21;100.00
7376;BME280;3728;42.266;24.944;2022-09-28T03:32:35;98470.16;;;15.21;100.00
7376;BME280;3728;42.266;24.944;2022-09-28T03:35:03;98471.41;;;15.04;100.00
7376;BME280;3728;42.266;24.944;2022-09-28T03:37:32;98465.38;;;15.03;100.00
7376;BME280;3728;42.266;24.944;2022-09-28T03:39:59;98469.97;;;15.10;100.00
7376;BME280;3728;42.266;24.944;2022-09-28T03:42:27;98468.00;;;15.30;100.00
7376;BME280;3728;42.266;24.944;2022-09-28T03:44:55;98461.88;;;15.48;100.00
7376;BME280;3728;42.266;24.944;2022-09-28T03:47:22;98477.69;;;15.22;100.00
7376;BME280;3728;42.266;24.944;2022-09-28T03:49:50;98491.78;;;15.33;100.00
7376;BME280;3728;42.266;24.944;2022-09-28T03:52:17;98486.19;;;15.61;100.00
7376;BME280;3728;42.266;24.944;2022-09-28T03:54:45;98494.78;;;15.32;100.00
7376;BME280;3728;42.266;24.944;2022-09-28T03:57:15;98494.19;;;15.16;100.00
7376;BME280;3728;42.266;24.944;2022-09-28T03:59:42;98490.66;;;15.08;100.00
7376;BME280;3728;42.266;24.944;2022-09-28T04:02:11;98490.53;;;15.24;100.00
7376;BME280;3728;42.266;24.944;2022-09-28T04:04:41;98499.81;;;15.14;100.00
7376;BME280;3728;42.266;24.944;2022-09-28T04:07:08;98500.56;;;15.15;100.00
7376;BME280;3728;42.266;24.944;2022-09-28T04:09:36;98501.00;;;15.17;100.00
7376;BME280;3728;42.266;24.944;2022-09-28T04:12:03;98507.94;;;15.28;100.00
7376;BME280;3728;42.266;24.944;2022-09-28T04:14:31;98499.84;;;15.18;100.00
7376;BME280;3728;42.266;24.944;2022-09-28T04:17:02;98490.16;;;14.99;100.00
7376;BME280;3728;42.266;24.944;2022-09-28T04:19:32;98488.19;;;14.92;100.00
7376;BME280;3728;42.266;24.944;2022-09-28T04:22:28;98497.59;;;15.16;100.00
7376;BME280;3728;42.266;24.944;2022-09-28T04:24:57;98496.66;;;15.05;100.00
7376;BME280;3728;42.266;24.944;2022-09-28T04:27:25;98507.38;;;15.16;100.00
7376;BME280;3728;42.266;24.944;2022-09-28T04:30:12;98513.31;;;15.09;100.00
7376;BME280;3728;42.266;24.944;2022-09-28T04:32:45;98519.44;;;14.94;100.00
7376;BME280;3728;42.266;24.944;2022-09-28T04:35:13;98518.81;;;15.00;100.00
7376;BME280;3728;42.266;24.944;2022-09-28T04:37:42;98516.53;;;14.99;100.00
7376;BME280;3728;42.266;24.944;2022-09-28T04:40:10;98513.75;;;15.15;100.00
7376;BME280;3728;42.266;24.944;2022-09-28T04:42:37;98516.94;;;15.01;100.00
7376;BME280;3728;42.266;24.944;2022-09-28T04:45:05;98527.06;;;14.99;100.00
7376;BME280;3728;42.266;24.944;2022-09-28T04:47:37;98521.09;;;15.02;100.00
7376;BME280;3728;42.266;24.944;2022-09-28T04:50:31;98512.13;;;15.06;100.00
7376;BME280;3728;42.266;24.944;2022-09-28T04:53:04;98510.78;;;15.16;100.00
7376;BME280;3728;42.266;24.944;2022-09-28T04:55:32;98512.72;;;15.45;100.00
7376;BME280;3728;42.266;24.944;2022-09-28T04:58:00;98508.16;;;15.42;100.00
7376;BME280;3728;42.266;24.944;2022-09-28T05:00:30;98513.91;;;15.48;100.00
7376;BME280;3728;42.266;24.944;2022-09-28T05:03:33;98511.59;;;15.72;100.00
7376;BME280;3728;42.266;24.944;2022-09-28T05:06:23;98508.16;;;15.68;100.00
7376;BME280;3728;42.266;24.944;2022-09-28T05:09:00;98514.38;;;15.83;100.00
7376;BME280;3728;42.266;24.944;2022-09-28T05:11:27;98523.53;;;15.93;100.00
7376;BME280;3728;42.266;24.944;2022-09-28T05:13:55;98526.41;;;16.10;100.00
7376;BME280;3728;42.266;24.944;2022-09-28T05:16:23;98538.69;;;16.29;100.00
7376;BME280;3728;42.266;24.944;2022-09-28T05:19:27;98547.56;;;16.47;100.00
7376;BME280;3728;42.266;24.944;2022-09-28T05:22:01;98542.19;;;16.73;100.00
7376;BME280;3728;42.266;24.944;2022-09-28T05:24:38;98563.34;;;16.73;100.00
7376;BME280;3728;42.266;24.944;2022-09-28T05:27:07;98576.09;;;16.64;100.00
7376;BME280;3728;42.266;24.944;2022-09-28T05:29:35;98573.28;;;16.50;100.00
7376;BME280;3728;42.266;24.944;2022-09-28T05:32:41;98565.56;;;16.68;100.00
7376;BME280;3728;42.266;24.944;2022-09-28T05:35:27;98563.44;;;16.80;100.00
7376;BME280;3728;42.266;24.944;2022-09-28T05:38:09;98563.03;;;16.45;100.00
7376;BME280;3728;42.266;24.944;2022-09-28T05:40:36;98571.28;;;16.40;100.00
7376;BME280;3728;42.266;24.944;2022-09-28T05:43:04;98564.06;;;16.04;100.00
7376;BME280;3728;42.266;24.944;2022-09-28T05:45:32;98568.47;;;16.26;100.00
7376;BME280;3728;42.266;24.944;2022-09-28T05:48:01;98570.25;;;16.18;100.00
7376;BME280;3728;42.266;24.944;2022-09-28T05:50:29;98575.84;;;16.43;100.00
7376;BME280;3728;42.266;24.944;2022-09-28T05:53:02;98574.81;;;16.51;100.00
7376;BME280;3728;42.266;24.944;2022-09-28T05:55:31;98581.78;;;16.63;100.00
7376;BME280;3728;42.266;24.944;2022-09-28T05:58:01;98587.28;;;16.87;100.00
7376;BME280;3728;42.266;24.944;2022-09-28T06:00:34;98576.56;;;17.14;100.00
7376;BME280;3728;42.266;24.944;2022-09-28T06:03:04;98581.72;;;17.43;100.00
7376;BME280;3728;42.266;24.944;2022-09-28T06:05:36;98594.69;;;17.52;100.00
7376;BME280;3728;42.266;24.944;2022-09-28T06:08:06;98592.69;;;17.45;100.00
7376;BME280;3728;42.266;24.944;2022-09-28T06:10:40;98593.31;;;17.75;100.00
7376;BME280;3728;42.266;24.944;2022-09-28T06:13:08;98595.75;;;17.51;100.00
7376;BME280;3728;42.266;24.944;2022-09-28T06:15:40;98593.19;;;17.58;100.00
7376;BME280;3728;42.266;24.944;2022-09-28T06:18:12;98598.94;;;17.67;100.00
7376;BME280;3728;42.266;24.944;2022-09-28T06:21:03;98591.59;;;18.08;100.00
7376;BME280;3728;42.266;24.944;2022-09-28T06:23:36;98594.44;;;18.47;100.00
7376;BME280;3728;42.266;24.944;2022-09-28T06:26:06;98596.72;;;18.52;98.39
7376;BME280;3728;42.266;24.944;2022-09-28T06:28:34;98595.47;;;18.28;100.00
7376;BME280;3728;42.266;24.944;2022-09-28T06:31:04;98597.09;;;18.54;98.06
7376;BME280;3728;42.266;24.944;2022-09-28T06:33:39;98584.94;;;18.38;96.45
7376;BME280;3728;42.266;24.944;2022-09-28T06:36:08;98585.31;;;18.40;97.78
7376;BME280;3728;42.266;24.944;2022-09-28T06:38:36;98577.34;;;18.40;96.17
7376;BME280;3728;42.266;24.944;2022-09-28T06:41:04;98572.13;;;18.51;97.29
7376;BME280;3728;42.266;24.944;2022-09-28T06:43:32;98580.53;;;18.85;96.41
7376;BME280;3728;42.266;24.944;2022-09-28T06:46:19;98589.66;;;18.98;94.69
7376;BME280;3728;42.266;24.944;2022-09-28T06:48:49;98598.75;;;19.18;94.56
7376;BME280;3728;42.266;24.944;2022-09-28T06:51:30;98609.41;;;19.60;90.88
7376;BME280;3728;42.266;24.944;2022-09-28T06:54:18;98601.44;;;19.57;90.86
7376;BME280;3728;42.266;24.944;2022-09-28T06:57:09;98603.31;;;19.70;90.65
7376;BME280;3728;42.266;24.944;2022-09-28T06:59:36;98619.84;;;20.45;85.48
7376;BME280;3728;42.266;24.944;2022-09-28T07:02:04;98625.88;;;20.53;83.11
7376;BME280;3728;42.266;24.944;2022-09-28T07:04:50;98631.31;;;20.07;86.59
7376;BME280;3728;42.266;24.944;2022-09-28T07:07:46;98640.06;;;20.25;87.14
7376;BME280;3728;42.266;24.944;2022-09-28T07:10:24;98641.84;;;20.53;86.04
7376;BME280;3728;42.266;24.944;2022-09-28T07:13:19;98621.25;;;20.67;84.09
7376;BME280;3728;42.266;24.944;2022-09-28T07:16:06;98611.84;;;21.18;79.73
7376;BME280;3728;42.266;24.944;2022-09-28T07:18:34;98609.22;;;21.10;79.31
7376;BME280;3728;42.266;24.944;2022-09-28T07:21:02;98604.34;;;20.98;81.56
7376;BME280;3728;42.266;24.944;2022-09-28T07:23:36;98602.84;;;20.97;82.50
7376;BME280;3728;42.266;24.944;2022-09-28T07:26:21;98612.94;;;21.24;81.12
7376;BME280;3728;42.266;24.944;2022-09-28T07:28:56;98617.22;;;21.10;80.39
7376;BME280;3728;42.266;24.944;2022-09-28T07:31:36;98617.50;;;21.71;77.11
7376;BME280;3728;42.266;24.944;2022-09-28T07:34:26;98610.72;;;21.63;79.05
7376;BME280;3728;42.266;24.944;2022-09-28T07:37:05;98606.44;;;21.72;78.68
7376;BME280;3728;42.266;24.944;2022-09-28T07:39:37;98609.53;;;22.08;76.28
7376;BME280;3728;42.266;24.944;2022-09-28T07:42:25;98605.50;;;22.27;76.63
7376;BME280;3728;42.266;24.944;2022-09-28T07:44:58;98597.75;;;22.39;75.51
7376;BME280;3728;42.266;24.944;2022-09-28T07:47:25;98600.66;;;22.48;73.17
7376;BME280;3728;42.266;24.944;2022-09-28T07:50:28;98589.59;;;22.16;75.45
7376;BME280;3728;42.266;24.944;2022-09-28T07:53:11;98597.91;;;22.56;76.55
7376;BME280;3728;42.266;24.944;2022-09-28T07:56:01;98600.91;;;22.61;73.86
7376;BME280;3728;42.266;24.944;2022-09-28T07:58:40;98603.75;;;22.77;72.59
7376;BME280;3728;42.266;24.944;2022-09-28T08:01:37;98607.97;;;23.01;72.09
7376;BME280;3728;42.266;24.944;2022-09-28T08:04:07;98609.03;;;23.31;68.42
7376;BME280;3728;42.266;24.944;2022-09-28T08:06:36;98622.75;;;23.36;67.67
7376;BME280;3728;42.266;24.944;2022-09-28T08:09:07;98614.22;;;23.41;70.56
7376;BME280;3728;42.266;24.944;2022-09-28T08:11:53;98614.41;;;23.54;69.30
7376;BME280;3728;42.266;24.944;2022-09-28T08:14:42;98616.19;;;24.03;64.23
7376;BME280;3728;42.266;24.944;2022-09-28T08:17:36;98621.84;;;23.66;65.89
7376;BME280;3728;42.266;24.944;2022-09-28T08:20:07;98621.72;;;23.73;66.90
7376;BME280;3728;42.266;24.944;2022-09-28T08:22:53;98618.47;;;23.85;66.85
7376;BME280;3728;42.266;24.944;2022-09-28T08:25:20;98626.63;;;23.98;68.64
7376;BME280;3728;42.266;24.944;2022-09-28T08:27:53;98627.28;;;24.25;65.35
7376;BME280;3728;42.266;24.944;2022-09-28T08:30:22;98622.13;;;24.34;66.29
7376;BME280;3728;42.266;24.944;2022-09-28T08:33:08;98616.91;;;24.46;62.58
7376;BME280;3728;42.266;24.944;2022-09-28T08:35:43;98618.69;;;24.53;61.93
7376;BME280;3728;42.266;24.944;2022-09-28T08:38:31;98620.16;;;24.74;63.22
7376;BME280;3728;42.266;24.944;2022-09-28T08:41:47;98620.97;;;25.06;63.10
7376;BME280;3728;42.266;24.944;2022-09-28T08:44:42;98619.81;;;24.91;64.82
7376;BME280;3728;42.266;24.944;2022-09-28T08:47:51;98618.28;;;25.06;63.92
7376;BME280;3728;42.266;24.944;2022-09-28T08:51:18;98604.22;;;25.35;61.89
7376;BME280;3728;42.266;24.944;2022-09-28T08:54:26;98614.94;;;25.35;64.03
7376;BME280;3728;42.266;24.944;2022-09-28T08:57:15;98607.25;;;25.69;59.69
7376;BME280;3728;42.266;24.944;2022-09-28T08:59:54;98602.59;;;25.86;59.75
7376;BME280;3728;42.266;24.944;2022-09-28T09:02:33;98604.00;;;25.90;59.75
7376;BME280;3728;42.266;24.944;2022-09-28T09:09:25;98602.28;;;25.96;59.16
7376;BME280;3728;42.266;24.944;2022-09-28T09:22:16;98606.34;;;26.83;55.07
7376;BME280;3728;42.266;24.944;2022-09-28T09:25:20;98607.75;;;26.75;55.29
7376;BME280;3728;42.266;24.944;2022-09-28T09:28:07;98604.31;;;27.12;54.70
7376;BME280;3728;42.266;24.944;2022-09-28T09:40:22;98589.38;;;27.58;51.11
7376;BME280;3728;42.266;24.944;2022-09-28T09:52:32;98592.72;;;28.58;46.42
7376;BME280;3728;42.266;24.944;2022-09-28T09:55:14;98597.03;;;28.46;48.12
7376;BME280;3728;42.266;24.944;2022-09-28T09:58:41;98599.81;;;28.43;45.75
7376;BME280;3728;42.266;24.944;2022-09-28T10:01:24;98590.03;;;28.58;45.37
7376;BME280;3728;42.266;24.944;2022-09-28T10:04:36;98579.00;;;28.65;47.53
7376;BME280;3728;42.266;24.944;2022-09-28T10:10:22;98576.28;;;28.96;46.78
7376;BME280;3728;42.266;24.944;2022-09-28T10:13:05;98574.09;;;29.22;45.66
7376;BME280;3728;42.266;24.944;2022-09-28T10:15:35;98580.25;;;29.31;44.84
7376;BME280;3728;42.266;24.944;2022-09-28T10:18:15;98568.75;;;29.76;40.50
7376;BME280;3728;42.266;24.944;2022-09-28T10:21:04;98565.44;;;29.63;39.16
7376;BME280;3728;42.266;24.944;2022-09-28T10:23:54;98569.03;;;29.51;39.67
7376;BME280;3728;42.266;24.944;2022-09-28T10:26:32;98556.91;;;29.55;40.55
7376;BME280;3728;42.266;24.944;2022-09-28T10:29:13;98545.94;;;29.68;39.29
7376;BME280;3728;42.266;24.944;2022-09-28T10:31:48;98552.84;;;29.87;39.43
7376;BME280;3728;42.266;24.944;2022-09-28T10:34:27;98551.19;;;29.90;38.59
7376;BME280;3728;42.266;24.944;2022-09-28T10:37:03;98552.63;;;30.18;37.71
7376;BME280;3728;42.266;24.944;2022-09-28T10:40:32;98555.06;;;30.07;37.55
7376;BME280;3728;42.266;24.944;2022-09-28T10:43:21;98554.47;;;29.94;37.60
7376;BME280;3728;42.266;24.944;2022-09-28T10:46:06;98541.75;;;29.85;37.14
7376;BME280;3728;42.266;24.944;2022-09-28T10:48:53;98545.28;;;30.18;36.77
7376;BME280;3728;42.266;24.944;2022-09-28T10:51:42;98549.31;;;30.23;36.68
7376;BME280;3728;42.266;24.944;2022-09-28T10:56:53;98539.50;;;30.43;35.68
7376;BME280;3728;42.266;24.944;2022-09-28T10:59:38;98538.03;;;30.42;36.42
7376;BME280;3728;42.266;24.944;2022-09-28T11:02:29;98530.38;;;30.65;37.53
7376;BME280;3728;42.266;24.944;2022-09-28T11:05:20;98532.41;;;30.79;36.39
7376;BME280;3728;42.266;24.944;2022-09-28T11:07:51;98527.25;;;30.66;36.16
7376;BME280;3728;42.266;24.944;2022-09-28T11:10:28;98521.84;;;30.66;35.21
7376;BME280;3728;42.266;24.944;2022-09-28T11:13:08;98514.78;;;30.69;35.10
7376;BME280;3728;42.266;24.944;2022-09-28T11:15:41;98509.53;;;31.13;33.57
7376;BME280;3728;42.266;24.944;2022-09-28T11:18:25;98507.06;;;31.24;34.59
7376;BME280;3728;42.266;24.944;2022-09-28T11:21:13;98497.69;;;31.10;35.87
7376;BME280;3728;42.266;24.944;2022-09-28T11:24:19;98500.91;;;31.23;34.94
7376;BME280;3728;42.266;24.944;2022-09-28T11:26:53;98497.50;;;31.52;33.89
7376;BME280;3728;42.266;24.944;2022-09-28T11:32:22;98493.56;;;31.38;34.24
7376;BME280;3728;42.266;24.944;2022-09-28T11:35:17;98487.94;;;31.27;33.64
7376;BME280;3728;42.266;24.944;2022-09-28T11:55:46;98468.38;;;32.20;31.73
7376;BME280;3728;42.266;24.944;2022-09-28T12:01:11;98467.53;;;32.63;29.29
7376;BME280;3728;42.266;24.944;2022-09-28T12:04:44;98465.34;;;32.32;30.36
7376;BME280;3728;42.266;24.944;2022-09-28T12:07:36;98461.44;;;32.33;30.67
7376;BME280;3728;42.266;24.944;2022-09-28T12:14:28;98467.00;;;32.44;29.46
7376;BME280;3728;42.266;24.944;2022-09-28T12:17:20;98452.75;;;32.64;29.65
7376;BME280;3728;42.266;24.944;2022-09-28T12:20:29;98448.16;;;32.90;30.03
7376;BME280;3728;42.266;24.944;2022-09-28T12:25:54;98447.53;;;33.47;28.58
7376;BME280;3728;42.266;24.944;2022-09-28T12:28:31;98440.63;;;33.77;28.35
7376;BME280;3728;42.266;24.944;2022-09-28T12:31:20;98436.19;;;34.05;27.37
7376;BME280;3728;42.266;24.944;2022-09-28T12:33:52;98436.16;;;33.48;27.32
7376;BME280;3728;42.266;24.944;2022-09-28T12:36:35;98432.19;;;33.44;28.03
7376;BME280;3728;42.266;24.944;2022-09-28T12:39:49;98436.53;;;33.56;28.75
7376;BME280;3728;42.266;24.944;2022-09-28T12:54:30;98417.25;;;33.54;27.38
7376;BME280;3728;42.266;24.944;2022-09-28T12:57:42;98418.53;;;34.32;27.11
7376;BME280;3728;42.266;24.944;2022-09-28T13:00:28;98426.59;;;34.58;26.86
7376;BME280;3728;42.266;24.944;2022-09-28T13:11:39;98422.19;;;35.63;24.04
7376;BME280;3728;42.266;24.944;2022-09-28T13:25:35;98424.63;;;35.45;23.89
7376;BME280;3728;42.266;24.944;2022-09-28T13:28:10;98425.66;;;35.58;23.83
7376;BME280;3728;42.266;24.944;2022-09-28T13:30:41;98425.38;;;35.67;23.75
7376;BME280;3728;42.266;24.944;2022-09-28T13:33:36;98425.00;;;36.54;21.66
7376;BME280;3728;42.266;24.944;2022-09-28T13:38:59;98433.28;;;36.89;22.85
7376;BME280;3728;42.266;24.944;2022-09-28T13:41:32;98430.84;;;37.27;22.74
7376;BME280;3728;42.266;24.944;2022-09-28T13:46:53;98436.41;;;37.86;22.17
7376;BME280;3728;42.266;24.944;2022-09-28T13:58:27;98422.19;;;38.60;20.28
7376;BME280;3728;42.266;24.944;2022-09-28T14:01:03;98414.00;;;38.60;20.69
7376;BME280;3728;42.266;24.944;2022-09-28T14:16:43;98409.13;;;39.41;19.59
7376;BME280;3728;42.266;24.944;2022-09-28T14:19:17;98414.28;;;39.76;18.14
7376;BME280;3728;42.266;24.944;2022-09-28T14:21:59;98411.88;;;39.86;19.48
7376;BME280;3728;42.266;24.944;2022-09-28T14:24:39;98412.22;;;39.95;18.07
7376;BME280;3728;42.266;24.944;2022-09-28T14:30:26;98411.91;;;39.99;18.39
7376;BME280;3728;42.266;24.944;2022-09-28T14:35:49;98419.03;;;40.93;18.00
7376;BME280;3728;42.266;24.944;2022-09-28T14:38:30;98415.03;;;41.15;16.99
7376;BME280;3728;42.266;24.944;2022-09-28T14:41:34;98411.41;;;41.20;16.63
7376;BME280;3728;42.266;24.944;2022-09-28T14:44:13;98410.72;;;40.73;17.69
7376;BME280;3728;42.266;24.944;2022-09-28T14:46:47;98398.72;;;40.63;18.06
7376;BME280;3728;42.266;24.944;2022-09-28T14:54:19;98404.75;;;40.22;18.89
7376;BME280;3728;42.266;24.944;2022-09-28T14:59:21;98410.47;;;40.11;20.24
7376;BME280;3728;42.266;24.944;2022-09-28T15:01:56;98410.47;;;39.34;20.16
7376;BME280;3728;42.266;24.944;2022-09-28T15:04:28;98410.88;;;38.51;20.15
7376;BME280;3728;42.266;24.944;2022-09-28T15:06:57;98409.84;;;37.11;21.96
7376;BME280;3728;42.266;24.944;2022-09-28T15:09:34;98408.28;;;35.84;24.38
7376;BME280;3728;42.266;24.944;2022-09-28T15:12:04;98398.75;;;34.96;23.14
7376;BME280;3728;42.266;24.944;2022-09-28T15:14:45;98408.59;;;34.23;24.79
7376;BME280;3728;42.266;24.944;2022-09-28T15:17:34;98405.50;;;33.68;27.20
7376;BME280;3728;42.266;24.944;2022-09-28T15:22:52;98407.22;;;32.33;31.93
7376;BME280;3728;42.266;24.944;2022-09-28T15:25:28;98403.34;;;31.56;33.44
7376;BME280;3728;42.266;24.944;2022-09-28T15:28:00;98398.47;;;31.16;35.50
7376;BME280;3728;42.266;24.944;2022-09-28T15:30:39;98391.53;;;30.77;35.71
7376;BME280;3728;42.266;24.944;2022-09-28T15:33:24;98400.22;;;30.42;36.85
7376;BME280;3728;42.266;24.944;2022-09-28T15:36:24;98405.63;;;30.01;37.96
7376;BME280;3728;42.266;24.944;2022-09-28T15:39:09;98403.66;;;29.59;38.81
7376;BME280;3728;42.266;24.944;2022-09-28T15:41:47;98404.16;;;29.31;39.87
7376;BME280;3728;42.266;24.944;2022-09-28T15:47:14;98398.63;;;28.98;41.18
7376;BME280;3728;42.266;24.944;2022-09-28T15:49:56;98394.88;;;28.59;40.94
7376;BME280;3728;42.266;24.944;2022-09-28T15:52:42;98412.75;;;28.26;41.91
7376;BME280;3728;42.266;24.944;2022-09-28T15:57:50;98417.44;;;28.04;41.94
7376;BME280;3728;42.266;24.944;2022-09-28T16:01:17;98421.84;;;27.89;43.38
7376;BME280;3728;42.266;24.944;2022-09-28T16:03:44;98413.81;;;27.67;43.91
7376;BME280;3728;42.266;24.944;2022-09-28T16:06:12;98419.34;;;27.42;45.16
7376;BME280;3728;42.266;24.944;2022-09-28T16:08:41;98419.69;;;27.31;45.53
7376;BME280;3728;42.266;24.944;2022-09-28T16:11:24;98410.88;;;27.09;44.84
7376;BME280;3728;42.266;24.944;2022-09-28T16:14:00;98411.03;;;26.93;45.49
7376;BME280;3728;42.266;24.944;2022-09-28T16:16:39;98406.59;;;26.77;46.30
7376;BME280;3728;42.266;24.944;2022-09-28T16:19:37;98414.66;;;26.65;46.38
7376;BME280;3728;42.266;24.944;2022-09-28T16:22:17;98409.53;;;26.45;46.98
7376;BME280;3728;42.266;24.944;2022-09-28T16:24:56;98405.03;;;26.29;46.70
7376;BME280;3728;42.266;24.944;2022-09-28T16:27:59;98408.69;;;26.10;47.53
7376;BME280;3728;42.266;24.944;2022-09-28T16:30:29;98408.16;;;25.90;49.21
7376;BME280;3728;42.266;24.944;2022-09-28T16:35:49;98415.72;;;25.66;50.21
7376;BME280;3728;42.266;24.944;2022-09-28T16:38:17;98412.69;;;25.52;50.71
7376;BME280;3728;42.266;24.944;2022-09-28T16:40:48;98409.31;;;25.35;51.83
7376;BME280;3728;42.266;24.944;2022-09-28T16:43:20;98421.94;;;25.35;50.86
7376;BME280;3728;42.266;24.944;2022-09-28T16:45:54;98422.38;;;25.33;50.46
7376;BME280;3728;42.266;24.944;2022-09-28T16:48:26;98418.50;;;25.22;50.12
7376;BME280;3728;42.266;24.944;2022-09-28T16:51:19;98414.34;;;25.04;49.78
7376;BME280;3728;42.266;24.944;2022-09-28T16:53:47;98416.63;;;25.06;49.50
7376;BME280;3728;42.266;24.944;2022-09-28T16:56:35;98418.47;;;24.93;47.39
7376;BME280;3728;42.266;24.944;2022-09-28T16:59:03;98424.16;;;24.95;47.77
7376;BME280;3728;42.266;24.944;2022-09-28T17:01:30;98426.25;;;24.87;48.17
7376;BME280;3728;42.266;24.944;2022-09-28T17:03:58;98423.69;;;24.84;48.24
7376;BME280;3728;42.266;24.944;2022-09-28T17:06:26;98432.28;;;24.75;48.34
7376;BME280;3728;42.266;24.944;2022-09-28T17:08:53;98433.13;;;24.56;49.46
7376;BME280;3728;42.266;24.944;2022-09-28T17:11:25;98429.72;;;24.39;49.61
7376;BME280;3728;42.266;24.944;2022-09-28T17:13:52;98437.25;;;24.44;51.06
7376;BME280;3728;42.266;24.944;2022-09-28T17:16:27;98433.72;;;24.47;50.44
7376;BME280;3728;42.266;24.944;2022-09-28T17:19:22;98431.88;;;24.44;50.64
7376;BME280;3728;42.266;24.944;2022-09-28T17:21:51;98427.34;;;24.41;49.87
7376;BME280;3728;42.266;24.944;2022-09-28T17:24:19;98424.34;;;24.23;49.35
7376;BME280;3728;42.266;24.944;2022-09-28T17:26:50;98432.53;;;24.16;49.58
7376;BME280;3728;42.266;24.944;2022-09-28T17:29:18;98426.25;;;24.07;49.67